Main page
METAR-TAF:

Airports :

London-Luton, England

Luton Airport

latitude: 51-52N, longitude: 000-22W, elevation: 160 m

Current weather observation

The report was made 41 minutes ago, at 06:50 UTC
Wind 10 kt from the North
Temperature 9°C
Humidity 100%
Pressure 1013 hPa
Visibility: 3000 m
Broken clouds at a height of 200 ft
Overcast at a height of 300 ft
mist

METAR: EGGW 290650Z 36010KT 3000 BR BKN002 OVC003 09/09 Q1013

Time: 08:31 (07:31 UTC)

Forecast

The report was made 2 hours and 30 minutes ago, at 05:01 UTC
Forecast valid from 29 at 06 UTC to 30 at 06 UTC
Wind 6 kt from the North/Northeast
Visibility: 2000 m
Overcast at a height of 100 ft
mist
Becoming
from 29 at 06 UTC to 29 at 09 UTC
Visibility 10 km or more
Few clouds at a height of 4000 ft
Becoming
from 29 at 21 UTC to 29 at 24 UTC
Broken clouds at a height of 800 ft

TAF: EGGW 290501Z 2906/3006 02006KT 2000 BR OVC001 BECMG 2906/2909 9999 NSW FEW040 BECMG 2921/2924 BKN008

METAR-TAF

Weather observations and forecasts of more than 4000 airports (METAR and TAF reports).

The available stations are represented by yellow and red dots on the map.

Hover mouse over dot to see the name of the station.

Then click to see weather observations and forecasts.

To change the map : click on the green buttons with a black cross to zoom in, on the green button with a dash to zoom out, or on the green arrows for adjacent maps.


METAR-TAF: